sensor_id;sensor_type;location;lat;lon;timestamp;temperature;humidity
20714;DHT22;10518;50.742;4.226;2022-08-04T00:01:53;24.60;99.90
20714;DHT22;10518;50.742;4.226;2022-08-04T00:04:32;24.60;99.90
20714;DHT22;10518;50.742;4.226;2022-08-04T00:07:13;24.50;99.90
20714;DHT22;10518;50.742;4.226;2022-08-04T00:09:43;24.50;99.90
20714;DHT22;10518;50.742;4.226;2022-08-04T00:12:11;24.40;99.90
20714;DHT22;10518;50.742;4.226;2022-08-04T00:14:46;24.40;99.90
20714;DHT22;10518;50.742;4.226;2022-08-04T00:17:13;24.40;99.90
20714;DHT22;10518;50.742;4.226;2022-08-04T00:19:43;24.40;99.90
20714;DHT22;10518;50.742;4.226;2022-08-04T00:22:10;24.30;99.90
20714;DHT22;10518;50.742;4.226;2022-08-04T00:24:37;24.30;99.90
20714;DHT22;10518;50.742;4.226;2022-08-04T00:27:03;24.20;99.90
20714;DHT22;10518;50.742;4.226;2022-08-04T00:29:30;24.10;99.90
20714;DHT22;10518;50.742;4.226;2022-08-04T00:31:56;24.10;99.90
20714;DHT22;10518;50.742;4.226;2022-08-04T00:34:24;24.00;99.90
20714;DHT22;10518;50.742;4.226;2022-08-04T00:36:51;24.00;99.90
20714;DHT22;10518;50.742;4.226;2022-08-04T00:39:17;24.00;99.90
20714;DHT22;10518;50.742;4.226;2022-08-04T00:58:48;23.70;99.90
20714;DHT22;10518;50.742;4.226;2022-08-04T01:03:56;23.60;99.90
20714;DHT22;10518;50.742;4.226;2022-08-04T01:06:39;23.60;99.90
20714;DHT22;10518;50.742;4.226;2022-08-04T01:12:26;23.60;99.90
20714;DHT22;10518;50.742;4.226;2022-08-04T01:20:13;23.50;99.90
20714;DHT22;10518;50.742;4.226;2022-08-04T01:30:44;23.40;99.90
20714;DHT22;10518;50.742;4.226;2022-08-04T01:33:16;23.40;99.90
20714;DHT22;10518;50.742;4.226;2022-08-04T01:35:55;23.40;99.90
20714;DHT22;10518;50.742;4.226;2022-08-04T01:38:28;23.40;99.90
20714;DHT22;10518;50.742;4.226;2022-08-04T01:40:58;23.30;99.90
20714;DHT22;10518;50.742;4.226;2022-08-04T01:43:27;23.30;99.90
20714;DHT22;10518;50.742;4.226;2022-08-04T01:46:01;23.20;99.90
20714;DHT22;10518;50.742;4.226;2022-08-04T01:48:28;23.20;99.90
20714;DHT22;10518;50.742;4.226;2022-08-04T01:51:01;23.20;99.90
20714;DHT22;10518;50.742;4.226;2022-08-04T01:53:39;23.20;99.90
20714;DHT22;10518;50.742;4.226;2022-08-04T01:56:06;23.10;99.90
20714;DHT22;10518;50.742;4.226;2022-08-04T01:58:33;23.00;99.90
20714;DHT22;10518;50.742;4.226;2022-08-04T02:03:28;23.00;99.90
20714;DHT22;10518;50.742;4.226;2022-08-04T02:06:16;22.90;99.90
20714;DHT22;10518;50.742;4.226;2022-08-04T02:11:21;22.80;99.90
20714;DHT22;10518;50.742;4.226;2022-08-04T02:13:53;22.70;99.90
20714;DHT22;10518;50.742;4.226;2022-08-04T02:16:31;22.80;99.90
20714;DHT22;10518;50.742;4.226;2022-08-04T02:19:31;22.90;99.90
20714;DHT22;10518;50.742;4.226;2022-08-04T02:22:06;22.80;99.90
20714;DHT22;10518;50.742;4.226;2022-08-04T02:24:32;22.80;99.90
20714;DHT22;10518;50.742;4.226;2022-08-04T02:27:02;22.70;99.90
20714;DHT22;10518;50.742;4.226;2022-08-04T02:29:50;22.70;99.90
20714;DHT22;10518;50.742;4.226;2022-08-04T02:32:25;22.70;99.90
20714;DHT22;10518;50.742;4.226;2022-08-04T02:35:07;22.70;99.90
20714;DHT22;10518;50.742;4.226;2022-08-04T02:37:33;22.60;99.90
20714;DHT22;10518;50.742;4.226;2022-08-04T02:40:01;22.70;99.90
20714;DHT22;10518;50.742;4.226;2022-08-04T02:42:28;22.70;99.90
20714;DHT22;10518;50.742;4.226;2022-08-04T02:44:57;22.60;99.90
20714;DHT22;10518;50.742;4.226;2022-08-04T02:47:26;22.60;99.90
20714;DHT22;10518;50.742;4.226;2022-08-04T02:49:52;22.60;99.90
20714;DHT22;10518;50.742;4.226;2022-08-04T02:52:19;22.70;99.90
20714;DHT22;10518;50.742;4.226;2022-08-04T02:54:50;22.60;99.90
20714;DHT22;10518;50.742;4.226;2022-08-04T02:57:17;22.60;99.90
20714;DHT22;10518;50.742;4.226;2022-08-04T03:00:05;22.60;99.90
20714;DHT22;10518;50.742;4.226;2022-08-04T03:05:22;22.50;99.90
20714;DHT22;10518;50.742;4.226;2022-08-04T03:08:04;22.40;99.90
20714;DHT22;10518;50.742;4.226;2022-08-04T03:11:04;22.40;99.90
20714;DHT22;10518;50.742;4.226;2022-08-04T03:19:35;22.30;99.90
20714;DHT22;10518;50.742;4.226;2022-08-04T03:39:43;22.20;99.90
20714;DHT22;10518;50.742;4.226;2022-08-04T03:47:54;22.10;99.90
20714;DHT22;10518;50.742;4.226;2022-08-04T03:50:41;22.00;99.90
20714;DHT22;10518;50.742;4.226;2022-08-04T03:54:01;22.10;99.90
20714;DHT22;10518;50.742;4.226;2022-08-04T03:56:48;22.20;99.90
20714;DHT22;10518;50.742;4.226;2022-08-04T03:59:43;22.20;99.90
20714;DHT22;10518;50.742;4.226;2022-08-04T04:21:57;22.00;99.90
20714;DHT22;10518;50.742;4.226;2022-08-04T04:34:59;21.90;99.90
20714;DHT22;10518;50.742;4.226;2022-08-04T04:40:47;22.00;99.90
20714;DHT22;10518;50.742;4.226;2022-08-04T04:54:53;22.20;99.90
20714;DHT22;10518;50.742;4.226;2022-08-04T04:57:02;22.30;99.90
20714;DHT22;10518;50.742;4.226;2022-08-04T04:59:33;22.20;99.90
20714;DHT22;10518;50.742;4.226;2022-08-04T05:07:50;22.30;99.90
20714;DHT22;10518;50.742;4.226;2022-08-04T05:15:49;22.30;99.90
20714;DHT22;10518;50.742;4.226;2022-08-04T05:18:27;22.30;99.90
20714;DHT22;10518;50.742;4.226;2022-08-04T05:21:10;22.40;99.90
20714;DHT22;10518;50.742;4.226;2022-08-04T05:23:43;22.50;99.90
20714;DHT22;10518;50.742;4.226;2022-08-04T05:26:12;22.60;99.90
20714;DHT22;10518;50.742;4.226;2022-08-04T05:28:42;22.60;99.90
20714;DHT22;10518;50.742;4.226;2022-08-04T05:31:20;22.60;99.90
20714;DHT22;10518;50.742;4.226;2022-08-04T05:33:57;22.60;99.90
20714;DHT22;10518;50.742;4.226;2022-08-04T05:36:30;22.60;99.90
20714;DHT22;10518;50.742;4.226;2022-08-04T05:38:58;22.70;99.90
20714;DHT22;10518;50.742;4.226;2022-08-04T05:41:26;22.80;99.90
20714;DHT22;10518;50.742;4.226;2022-08-04T05:43:52;22.90;99.90
20714;DHT22;10518;50.742;4.226;2022-08-04T05:46:19;23.10;99.90
20714;DHT22;10518;50.742;4.226;2022-08-04T05:48:45;23.40;99.90
20714;DHT22;10518;50.742;4.226;2022-08-04T05:51:13;23.50;99.90
20714;DHT22;10518;50.742;4.226;2022-08-04T05:53:40;23.70;99.90
20714;DHT22;10518;50.742;4.226;2022-08-04T05:56:11;23.90;99.90
20714;DHT22;10518;50.742;4.226;2022-08-04T05:58:38;24.30;99.90
20714;DHT22;10518;50.742;4.226;2022-08-04T06:01:05;24.70;99.90
20714;DHT22;10518;50.742;4.226;2022-08-04T06:03:33;25.00;99.90
20714;DHT22;10518;50.742;4.226;2022-08-04T06:06:00;25.70;99.90
20714;DHT22;10518;50.742;4.226;2022-08-04T06:08:27;26.50;99.90
20714;DHT22;10518;50.742;4.226;2022-08-04T06:10:56;27.00;99.90
20714;DHT22;10518;50.742;4.226;2022-08-04T06:13:35;27.00;99.90
20714;DHT22;10518;50.742;4.226;2022-08-04T06:16:01;26.70;99.90
20714;DHT22;10518;50.742;4.226;2022-08-04T06:18:32;27.00;99.90
20714;DHT22;10518;50.742;4.226;2022-08-04T06:21:01;27.20;99.90
20714;DHT22;10518;50.742;4.226;2022-08-04T06:23:29;27.50;99.90
20714;DHT22;10518;50.742;4.226;2022-08-04T06:25:57;28.20;99.90
20714;DHT22;10518;50.742;4.226;2022-08-04T06:28:26;29.10;99.90
20714;DHT22;10518;50.742;4.226;2022-08-04T06:30:53;29.80;99.90
20714;DHT22;10518;50.742;4.226;2022-08-04T06:33:20;29.90;99.90
20714;DHT22;10518;50.742;4.226;2022-08-04T06:35:58;29.80;99.90
20714;DHT22;10518;50.742;4.226;2022-08-04T06:38:27;30.30;99.90
20714;DHT22;10518;50.742;4.226;2022-08-04T06:40:54;30.70;99.90
20714;DHT22;10518;50.742;4.226;2022-08-04T06:43:25;31.10;99.90
20714;DHT22;10518;50.742;4.226;2022-08-04T06:45:53;31.30;99.90
20714;DHT22;10518;50.742;4.226;2022-08-04T06:48:20;31.50;99.90
20714;DHT22;10518;50.742;4.226;2022-08-04T06:50:48;31.20;99.90
20714;DHT22;10518;50.742;4.226;2022-08-04T06:53:15;31.40;99.90
20714;DHT22;10518;50.742;4.226;2022-08-04T06:55:47;31.20;99.90
20714;DHT22;10518;50.742;4.226;2022-08-04T06:58:14;30.50;99.90
20714;DHT22;10518;50.742;4.226;2022-08-04T07:00:42;30.00;99.90
20714;DHT22;10518;50.742;4.226;2022-08-04T07:03:09;29.80;99.90
20714;DHT22;10518;50.742;4.226;2022-08-04T07:05:36;29.60;99.90
20714;DHT22;10518;50.742;4.226;2022-08-04T07:08:02;29.50;99.90
20714;DHT22;10518;50.742;4.226;2022-08-04T07:10:29;29.30;99.90
20714;DHT22;10518;50.742;4.226;2022-08-04T07:12:59;29.00;99.90
20714;DHT22;10518;50.742;4.226;2022-08-04T07:15:26;28.70;99.90
20714;DHT22;10518;50.742;4.226;2022-08-04T07:17:53;28.30;99.90
20714;DHT22;10518;50.742;4.226;2022-08-04T07:20:21;28.00;99.90
20714;DHT22;10518;50.742;4.226;2022-08-04T07:22:47;27.70;99.90
20714;DHT22;10518;50.742;4.226;2022-08-04T07:25:15;27.60;99.90
20714;DHT22;10518;50.742;4.226;2022-08-04T07:27:42;27.40;99.90
20714;DHT22;10518;50.742;4.226;2022-08-04T07:30:08;27.60;99.90
20714;DHT22;10518;50.742;4.226;2022-08-04T07:32:34;27.40;99.90
20714;DHT22;10518;50.742;4.226;2022-08-04T07:35:02;27.40;99.90
20714;DHT22;10518;50.742;4.226;2022-08-04T07:37:28;27.10;99.90
20714;DHT22;10518;50.742;4.226;2022-08-04T07:39:54;27.20;99.90
20714;DHT22;10518;50.742;4.226;2022-08-04T07:42:19;27.10;99.90
20714;DHT22;10518;50.742;4.226;2022-08-04T07:44:45;27.00;99.90
20714;DHT22;10518;50.742;4.226;2022-08-04T07:47:11;26.90;99.90
20714;DHT22;10518;50.742;4.226;2022-08-04T07:49:37;26.60;99.90
20714;DHT22;10518;50.742;4.226;2022-08-04T07:52:03;26.60;99.90
20714;DHT22;10518;50.742;4.226;2022-08-04T07:54:32;26.70;99.90
20714;DHT22;10518;50.742;4.226;2022-08-04T07:56:58;26.70;99.90
20714;DHT22;10518;50.742;4.226;2022-08-04T07:59:24;26.70;99.90
20714;DHT22;10518;50.742;4.226;2022-08-04T08:01:50;26.50;99.90
20714;DHT22;10518;50.742;4.226;2022-08-04T08:04:16;26.20;99.90
20714;DHT22;10518;50.742;4.226;2022-08-04T08:06:42;26.00;99.90
20714;DHT22;10518;50.742;4.226;2022-08-04T08:09:12;25.60;99.90
20714;DHT22;10518;50.742;4.226;2022-08-04T08:11:38;25.40;99.90
20714;DHT22;10518;50.742;4.226;2022-08-04T08:14:04;25.20;99.90
20714;DHT22;10518;50.742;4.226;2022-08-04T08:16:30;25.30;99.90
20714;DHT22;10518;50.742;4.226;2022-08-04T08:18:58;25.10;99.90
20714;DHT22;10518;50.742;4.226;2022-08-04T08:21:25;25.10;99.90
20714;DHT22;10518;50.742;4.226;2022-08-04T08:23:51;25.00;99.90
20714;DHT22;10518;50.742;4.226;2022-08-04T08:26:16;24.90;99.90
20714;DHT22;10518;50.742;4.226;2022-08-04T08:28:42;24.90;99.90
20714;DHT22;10518;50.742;4.226;2022-08-04T08:31:08;25.00;99.90
20714;DHT22;10518;50.742;4.226;2022-08-04T08:33:34;24.90;99.90
20714;DHT22;10518;50.742;4.226;2022-08-04T08:36:08;25.00;99.90
20714;DHT22;10518;50.742;4.226;2022-08-04T08:39:10;24.90;99.90
20714;DHT22;10518;50.742;4.226;2022-08-04T09:11:41;24.60;99.90
20714;DHT22;10518;50.742;4.226;2022-08-04T09:14:38;24.40;99.90
20714;DHT22;10518;50.742;4.226;2022-08-04T09:17:03;24.20;99.90
20714;DHT22;10518;50.742;4.226;2022-08-04T09:19:35;24.10;99.90
20714;DHT22;10518;50.742;4.226;2022-08-04T09:22:08;24.10;99.90
20714;DHT22;10518;50.742;4.226;2022-08-04T09:27:34;24.50;99.90
20714;DHT22;10518;50.742;4.226;2022-08-04T09:30:06;24.60;99.90
20714;DHT22;10518;50.742;4.226;2022-08-04T09:32:56;24.60;99.90
20714;DHT22;10518;50.742;4.226;2022-08-04T09:44:45;24.20;99.90
20714;DHT22;10518;50.742;4.226;2022-08-04T09:47:22;23.90;99.90
20714;DHT22;10518;50.742;4.226;2022-08-04T09:50:57;23.60;99.90
20714;DHT22;10518;50.742;4.226;2022-08-04T09:58:18;23.50;99.90
20714;DHT22;10518;50.742;4.226;2022-08-04T10:00:52;24.10;99.90
20714;DHT22;10518;50.742;4.226;2022-08-04T10:03:23;24.40;99.90
20714;DHT22;10518;50.742;4.226;2022-08-04T10:11:18;24.90;99.90
20714;DHT22;10518;50.742;4.226;2022-08-04T10:14:12;24.50;99.90
20714;DHT22;10518;50.742;4.226;2022-08-04T10:16:56;25.00;99.90
20714;DHT22;10518;50.742;4.226;2022-08-04T10:19:26;25.50;99.90
20714;DHT22;10518;50.742;4.226;2022-08-04T10:27:17;25.60;99.90
20714;DHT22;10518;50.742;4.226;2022-08-04T10:29:47;25.90;99.90
20714;DHT22;10518;50.742;4.226;2022-08-04T10:32:28;26.30;99.90
20714;DHT22;10518;50.742;4.226;2022-08-04T10:35:12;26.40;99.90
20714;DHT22;10518;50.742;4.226;2022-08-04T10:41:09;26.50;99.90
20714;DHT22;10518;50.742;4.226;2022-08-04T10:46:20;26.00;99.90
20714;DHT22;10518;50.742;4.226;2022-08-04T10:48:55;25.80;99.90
20714;DHT22;10518;50.742;4.226;2022-08-04T10:56:55;26.50;99.90
20714;DHT22;10518;50.742;4.226;2022-08-04T10:59:33;26.30;99.90
20714;DHT22;10518;50.742;4.226;2022-08-04T11:02:10;26.50;99.90
20714;DHT22;10518;50.742;4.226;2022-08-04T11:07:05;26.80;99.90
20714;DHT22;10518;50.742;4.226;2022-08-04T11:09:33;26.90;99.90
20714;DHT22;10518;50.742;4.226;2022-08-04T11:12:24;27.00;99.90
20714;DHT22;10518;50.742;4.226;2022-08-04T11:15:10;27.10;99.90
20714;DHT22;10518;50.742;4.226;2022-08-04T11:18:09;27.40;99.90
20714;DHT22;10518;50.742;4.226;2022-08-04T11:20:42;27.50;99.90
20714;DHT22;10518;50.742;4.226;2022-08-04T11:23:15;27.30;99.90
20714;DHT22;10518;50.742;4.226;2022-08-04T11:31:26;27.20;99.90
20714;DHT22;10518;50.742;4.226;2022-08-04T11:34:10;26.70;99.90
20714;DHT22;10518;50.742;4.226;2022-08-04T11:37:08;27.00;99.90
20714;DHT22;10518;50.742;4.226;2022-08-04T11:39:51;27.20;99.90
20714;DHT22;10518;50.742;4.226;2022-08-04T11:42:25;27.30;99.90
20714;DHT22;10518;50.742;4.226;2022-08-04T11:44:58;27.40;99.90
20714;DHT22;10518;50.742;4.226;2022-08-04T11:50:35;27.40;99.90
20714;DHT22;10518;50.742;4.226;2022-08-04T11:53:03;27.40;99.90
20714;DHT22;10518;50.742;4.226;2022-08-04T11:55:30;27.40;99.90
20714;DHT22;10518;50.742;4.226;2022-08-04T11:57:56;27.50;99.90
20714;DHT22;10518;50.742;4.226;2022-08-04T12:00:25;27.80;99.90
20714;DHT22;10518;50.742;4.226;2022-08-04T12:17:01;27.50;99.90
20714;DHT22;10518;50.742;4.226;2022-08-04T12:19:54;27.80;99.90
20714;DHT22;10518;50.742;4.226;2022-08-04T12:22:23;27.90;99.90
20714;DHT22;10518;50.742;4.226;2022-08-04T12:25:08;28.00;99.90
20714;DHT22;10518;50.742;4.226;2022-08-04T12:30:39;27.90;99.90
20714;DHT22;10518;50.742;4.226;2022-08-04T12:33:23;27.70;99.90
20714;DHT22;10518;50.742;4.226;2022-08-04T12:35:58;27.70;99.90
20714;DHT22;10518;50.742;4.226;2022-08-04T12:38:28;27.80;99.90
20714;DHT22;10518;50.742;4.226;2022-08-04T12:40:58;27.70;99.90
20714;DHT22;10518;50.742;4.226;2022-08-04T12:46:02;27.50;99.90
20714;DHT22;10518;50.742;4.226;2022-08-04T12:48:29;27.60;99.90
20714;DHT22;10518;50.742;4.226;2022-08-04T12:50:57;27.80;99.90
20714;DHT22;10518;50.742;4.226;2022-08-04T12:53:31;28.10;99.90
20714;DHT22;10518;50.742;4.226;2022-08-04T12:55:59;28.10;99.90
20714;DHT22;10518;50.742;4.226;2022-08-04T12:58:27;27.90;99.90
20714;DHT22;10518;50.742;4.226;2022-08-04T13:00:55;28.20;99.90
20714;DHT22;10518;50.742;4.226;2022-08-04T13:03:28;28.60;99.90
20714;DHT22;10518;50.742;4.226;2022-08-04T13:05:55;28.40;99.90
20714;DHT22;10518;50.742;4.226;2022-08-04T13:08:21;28.30;99.90
20714;DHT22;10518;50.742;4.226;2022-08-04T13:10:51;28.50;99.90
20714;DHT22;10518;50.742;4.226;2022-08-04T13:13:19;28.80;99.90
20714;DHT22;10518;50.742;4.226;2022-08-04T13:16:00;28.60;99.90
20714;DHT22;10518;50.742;4.226;2022-08-04T13:18:28;28.80;99.90
20714;DHT22;10518;50.742;4.226;2022-08-04T13:20:54;28.80;99.90
20714;DHT22;10518;50.742;4.226;2022-08-04T13:23:21;28.90;99.90
20714;DHT22;10518;50.742;4.226;2022-08-04T13:25:51;29.00;99.90
20714;DHT22;10518;50.742;4.226;2022-08-04T13:28:23;29.20;99.90
20714;DHT22;10518;50.742;4.226;2022-08-04T13:30:58;29.20;99.90
20714;DHT22;10518;50.742;4.226;2022-08-04T13:33:32;29.00;99.90
20714;DHT22;10518;50.742;4.226;2022-08-04T13:35:58;29.00;99.90
20714;DHT22;10518;50.742;4.226;2022-08-04T13:38:26;29.20;99.90
20714;DHT22;10518;50.742;4.226;2022-08-04T13:41:04;29.40;99.90
20714;DHT22;10518;50.742;4.226;2022-08-04T13:43:44;29.50;99.90
20714;DHT22;10518;50.742;4.226;2022-08-04T13:46:16;29.50;99.90
20714;DHT22;10518;50.742;4.226;2022-08-04T13:48:43;29.10;99.90
20714;DHT22;10518;50.742;4.226;2022-08-04T13:51:10;29.00;99.90
20714;DHT22;10518;50.742;4.226;2022-08-04T13:53:38;29.10;99.90
20714;DHT22;10518;50.742;4.226;2022-08-04T13:56:07;29.50;99.90
20714;DHT22;10518;50.742;4.226;2022-08-04T13:58:40;29.50;99.90
20714;DHT22;10518;50.742;4.226;2022-08-04T14:01:10;29.40;99.90
20714;DHT22;10518;50.742;4.226;2022-08-04T14:03:51;29.40;99.90
20714;DHT22;10518;50.742;4.226;2022-08-04T14:08:53;29.40;99.90
20714;DHT22;10518;50.742;4.226;2022-08-04T14:14:00;29.10;99.90
20714;DHT22;10518;50.742;4.226;2022-08-04T14:16:26;29.00;99.90
20714;DHT22;10518;50.742;4.226;2022-08-04T14:18:59;29.20;99.90
20714;DHT22;10518;50.742;4.226;2022-08-04T14:21:26;29.40;99.90
20714;DHT22;10518;50.742;4.226;2022-08-04T14:23:54;29.50;99.90
20714;DHT22;10518;50.742;4.226;2022-08-04T14:26:26;29.50;99.90
20714;DHT22;10518;50.742;4.226;2022-08-04T14:28:53;29.60;99.90
20714;DHT22;10518;50.742;4.226;2022-08-04T14:31:23;29.50;99.90
20714;DHT22;10518;50.742;4.226;2022-08-04T14:33:51;29.50;99.90
20714;DHT22;10518;50.742;4.226;2022-08-04T14:36:18;29.60;99.90
20714;DHT22;10518;50.742;4.226;2022-08-04T14:38:47;29.80;99.90
20714;DHT22;10518;50.742;4.226;2022-08-04T14:41:14;29.70;99.90
20714;DHT22;10518;50.742;4.226;2022-08-04T14:43:55;29.80;99.90
20714;DHT22;10518;50.742;4.226;2022-08-04T14:46:23;29.80;99.90
20714;DHT22;10518;50.742;4.226;2022-08-04T14:49:05;29.80;99.90
20714;DHT22;10518;50.742;4.226;2022-08-04T14:51:36;29.50;99.90
20714;DHT22;10518;50.742;4.226;2022-08-04T14:54:02;29.30;99.90
20714;DHT22;10518;50.742;4.226;2022-08-04T14:56:28;29.20;99.90
20714;DHT22;10518;50.742;4.226;2022-08-04T14:58:59;29.10;99.90
20714;DHT22;10518;50.742;4.226;2022-08-04T15:01:26;29.10;99.90
20714;DHT22;10518;50.742;4.226;2022-08-04T15:03:53;29.20;99.90
20714;DHT22;10518;50.742;4.226;2022-08-04T15:06:21;29.40;99.90
20714;DHT22;10518;50.742;4.226;2022-08-04T15:08:47;29.70;99.90
20714;DHT22;10518;50.742;4.226;2022-08-04T15:11:13;29.70;99.90
20714;DHT22;10518;50.742;4.226;2022-08-04T15:13:39;29.90;99.90
20714;DHT22;10518;50.742;4.226;2022-08-04T15:16:05;29.70;99.90
20714;DHT22;10518;50.742;4.226;2022-08-04T15:18:30;29.70;99.90
20714;DHT22;10518;50.742;4.226;2022-08-04T15:20:56;29.60;99.90
20714;DHT22;10518;50.742;4.226;2022-08-04T15:23:23;29.80;99.90
20714;DHT22;10518;50.742;4.226;2022-08-04T15:25:52;29.50;99.90
20714;DHT22;10518;50.742;4.226;2022-08-04T15:28:21;29.40;99.90
20714;DHT22;10518;50.742;4.226;2022-08-04T15:30:48;29.40;99.90
20714;DHT22;10518;50.742;4.226;2022-08-04T15:33:15;29.60;99.90
20714;DHT22;10518;50.742;4.226;2022-08-04T15:35:49;29.50;99.90
20714;DHT22;10518;50.742;4.226;2022-08-04T15:38:28;29.50;99.90
20714;DHT22;10518;50.742;4.226;2022-08-04T15:41:06;29.70;99.90
20714;DHT22;10518;50.742;4.226;2022-08-04T15:44:16;29.80;99.90
20714;DHT22;10518;50.742;4.226;2022-08-04T15:49:22;29.80;99.90
20714;DHT22;10518;50.742;4.226;2022-08-04T15:52:05;30.10;99.90
20714;DHT22;10518;50.742;4.226;2022-08-04T15:54:31;30.20;99.90
20714;DHT22;10518;50.742;4.226;2022-08-04T15:56:57;30.10;99.90
20714;DHT22;10518;50.742;4.226;2022-08-04T16:02:49;29.80;99.90
20714;DHT22;10518;50.742;4.226;2022-08-04T16:08:00;30.20;99.90
20714;DHT22;10518;50.742;4.226;2022-08-04T16:12:55;30.00;99.90
20714;DHT22;10518;50.742;4.226;2022-08-04T16:15:49;29.90;99.90
20714;DHT22;10518;50.742;4.226;2022-08-04T16:20:58;29.90;99.90
20714;DHT22;10518;50.742;4.226;2022-08-04T16:26:01;30.00;99.90
20714;DHT22;10518;50.742;4.226;2022-08-04T16:31:11;29.70;99.90
20714;DHT22;10518;50.742;4.226;2022-08-04T16:33:38;29.60;99.90
20714;DHT22;10518;50.742;4.226;2022-08-04T16:36:06;29.90;99.90
20714;DHT22;10518;50.742;4.226;2022-08-04T16:38:59;29.70;99.90
20714;DHT22;10518;50.742;4.226;2022-08-04T16:41:41;29.70;99.90
20714;DHT22;10518;50.742;4.226;2022-08-04T16:46:51;29.50;99.90
20714;DHT22;10518;50.742;4.226;2022-08-04T16:49:17;29.10;99.90
20714;DHT22;10518;50.742;4.226;2022-08-04T16:51:43;28.60;99.90
20714;DHT22;10518;50.742;4.226;2022-08-04T16:54:09;28.80;99.90
20714;DHT22;10518;50.742;4.226;2022-08-04T16:56:35;28.70;99.90
20714;DHT22;10518;50.742;4.226;2022-08-04T16:59:06;28.70;99.90
20714;DHT22;10518;50.742;4.226;2022-08-04T17:01:33;28.50;99.90
20714;DHT22;10518;50.742;4.226;2022-08-04T17:03:59;28.20;99.90
20714;DHT22;10518;50.742;4.226;2022-08-04T17:06:37;27.90;99.90
20714;DHT22;10518;50.742;4.226;2022-08-04T17:09:05;27.70;99.90
20714;DHT22;10518;50.742;4.226;2022-08-04T17:11:31;27.90;99.90
20714;DHT22;10518;50.742;4.226;2022-08-04T17:13:57;28.10;99.90
20714;DHT22;10518;50.742;4.226;2022-08-04T17:16:22;27.70;99.90
20714;DHT22;10518;50.742;4.226;2022-08-04T17:18:52;27.50;99.90
20714;DHT22;10518;50.742;4.226;2022-08-04T17:21:23;27.40;99.90
20714;DHT22;10518;50.742;4.226;2022-08-04T17:23:53;27.50;99.90
20714;DHT22;10518;50.742;4.226;2022-08-04T17:26:22;27.50;99.90
20714;DHT22;10518;50.742;4.226;2022-08-04T17:28:53;27.70;99.90
20714;DHT22;10518;50.742;4.226;2022-08-04T17:31:21;27.90;99.90
20714;DHT22;10518;50.742;4.226;2022-08-04T17:33:50;27.90;99.90
20714;DHT22;10518;50.742;4.226;2022-08-04T17:36:17;28.00;99.90
20714;DHT22;10518;50.742;4.226;2022-08-04T17:38:48;27.80;99.90
20714;DHT22;10518;50.742;4.226;2022-08-04T17:41:19;27.80;99.90
20714;DHT22;10518;50.742;4.226;2022-08-04T17:43:55;27.60;99.90
20714;DHT22;10518;50.742;4.226;2022-08-04T17:46:26;27.30;99.90
20714;DHT22;10518;50.742;4.226;2022-08-04T17:49:01;27.10;99.90
20714;DHT22;10518;50.742;4.226;2022-08-04T17:51:55;27.20;99.90
20714;DHT22;10518;50.742;4.226;2022-08-04T17:56:54;27.20;99.90
20714;DHT22;10518;50.742;4.226;2022-08-04T18:01:55;27.20;99.90
20714;DHT22;10518;50.742;4.226;2022-08-04T18:04:33;27.10;99.90
20714;DHT22;10518;50.742;4.226;2022-08-04T18:09:38;26.70;99.90
20714;DHT22;10518;50.742;4.226;2022-08-04T18:12:08;26.40;99.90
20714;DHT22;10518;50.742;4.226;2022-08-04T18:17:05;26.40;99.90
20714;DHT22;10518;50.742;4.226;2022-08-04T18:19:31;26.40;99.90
20714;DHT22;10518;50.742;4.226;2022-08-04T18:21:57;26.70;99.90
20714;DHT22;10518;50.742;4.226;2022-08-04T18:24:23;26.50;99.90
20714;DHT22;10518;50.742;4.226;2022-08-04T18:26:49;26.40;99.90
20714;DHT22;10518;50.742;4.226;2022-08-04T18:29:16;26.40;99.90
20714;DHT22;10518;50.742;4.226;2022-08-04T18:31:41;26.30;99.90
20714;DHT22;10518;50.742;4.226;2022-08-04T18:34:07;26.30;99.90
20714;DHT22;10518;50.742;4.226;2022-08-04T18:36:34;26.10;99.90
20714;DHT22;10518;50.742;4.226;2022-08-04T18:39:02;26.00;99.90
20714;DHT22;10518;50.742;4.226;2022-08-04T18:41:28;26.10;99.90
20714;DHT22;10518;50.742;4.226;2022-08-04T18:43:55;26.00;99.90
20714;DHT22;10518;50.742;4.226;2022-08-04T18:46:21;26.00;99.90
20714;DHT22;10518;50.742;4.226;2022-08-04T18:48:47;25.90;99.90
20714;DHT22;10518;50.742;4.226;2022-08-04T18:51:12;25.80;99.90
20714;DHT22;10518;50.742;4.226;2022-08-04T18:53:38;25.70;99.90
20714;DHT22;10518;50.742;4.226;2022-08-04T18:56:04;25.40;99.90
20714;DHT22;10518;50.742;4.226;2022-08-04T18:58:30;25.30;99.90
20714;DHT22;10518;50.742;4.226;2022-08-04T19:00:56;25.40;99.90
20714;DHT22;10518;50.742;4.226;2022-08-04T19:03:22;25.00;99.90
20714;DHT22;10518;50.742;4.226;2022-08-04T19:05:48;24.80;99.90
20714;DHT22;10518;50.742;4.226;2022-08-04T19:08:14;24.50;99.90
20714;DHT22;10518;50.742;4.226;2022-08-04T19:10:39;24.40;99.90
20714;DHT22;10518;50.742;4.226;2022-08-04T19:13:05;24.20;99.90
20714;DHT22;10518;50.742;4.226;2022-08-04T19:15:31;24.10;99.90
20714;DHT22;10518;50.742;4.226;2022-08-04T19:17:56;24.00;99.90
20714;DHT22;10518;50.742;4.226;2022-08-04T19:20:26;23.90;99.90
20714;DHT22;10518;50.742;4.226;2022-08-04T19:22:53;23.80;99.90
20714;DHT22;10518;50.742;4.226;2022-08-04T19:25:18;23.60;99.90
20714;DHT22;10518;50.742;4.226;2022-08-04T19:27:44;23.50;99.90
20714;DHT22;10518;50.742;4.226;2022-08-04T19:30:10;23.50;99.90
20714;DHT22;10518;50.742;4.226;2022-08-04T19:32:35;23.40;99.90
20714;DHT22;10518;50.742;4.226;2022-08-04T19:35:01;23.30;99.90
20714;DHT22;10518;50.742;4.226;2022-08-04T19:37:26;23.40;99.90
20714;DHT22;10518;50.742;4.226;2022-08-04T19:39:52;23.40;99.90
20714;DHT22;10518;50.742;4.226;2022-08-04T19:42:18;23.40;99.90
20714;DHT22;10518;50.742;4.226;2022-08-04T19:44:43;23.30;99.90
20714;DHT22;10518;50.742;4.226;2022-08-04T19:47:09;23.30;99.90
20714;DHT22;10518;50.742;4.226;2022-08-04T19:49:35;23.20;99.90
20714;DHT22;10518;50.742;4.226;2022-08-04T19:52:00;23.20;99.90
20714;DHT22;10518;50.742;4.226;2022-08-04T19:54:26;23.20;99.90
20714;DHT22;10518;50.742;4.226;2022-08-04T19:56:52;22.80;99.90
20714;DHT22;10518;50.742;4.226;2022-08-04T19:59:17;22.80;99.90
20714;DHT22;10518;50.742;4.226;2022-08-04T20:01:43;23.00;99.90
20714;DHT22;10518;50.742;4.226;2022-08-04T20:04:09;22.80;99.90
20714;DHT22;10518;50.742;4.226;2022-08-04T20:06:34;22.40;99.90
20714;DHT22;10518;50.742;4.226;2022-08-04T20:09:00;22.30;99.90
20714;DHT22;10518;50.742;4.226;2022-08-04T20:11:26;22.20;99.90
20714;DHT22;10518;50.742;4.226;2022-08-04T20:13:51;22.00;99.90
20714;DHT22;10518;50.742;4.226;2022-08-04T20:16:17;21.90;99.90
20714;DHT22;10518;50.742;4.226;2022-08-04T20:18:43;21.80;99.90
20714;DHT22;10518;50.742;4.226;2022-08-04T20:21:09;21.50;99.90